Terminal Aerodrome Forecast
Issued by NWS Shreveport, LA

Home | Current Version | Previous Version | Text Only | Print | Product List | Glossary On
Versions: 1 2 3 4 5 6 7 8 9 10 11 12 13 14 15
000
FTUS44 KSHV 012300
TAFSHV
TAF
KSHV 012320Z 0200/0224 12005KT P6SM FEW040 FEW090
     FM020700 17005KT 6SM BR BKN025
      TEMPO 0209/0213 3SM BR OVC012
     FM021500 18010KT P6SM SCT020 BKN040
     FM021800 21012G19KT P6SM VCSH SCT040
     FM022200 21010G18KT P6SM VCTS SCT040CB=

USA.gov is the U.S. government's official web portal to all federal, state and local government web resources and services.